Time;durP1;ratioP1;P1;durP2;ratioP2;P2;SDS_P1;SDS_P2;PMS_P1;PMS_P2;Temp;Humidity;BMP_temperature;BMP_pressure;BME280_temperature;BME280_humidity;BME280_pressure;Samples;Min_cycle;Max_cycle;Signal;HPM_P1;HPM_P2
2021/11/12 00:12:22;;;;;;;157.77;54.77;;;9.70;99.90;;;;;;4993946;28;20243;-63
2021/11/12 00:14:54;;;;;;;148.53;53.27;;;9.70;99.90;;;;;;5027155;28;20232;-63
2021/11/12 00:17:26;;;;;;;153.07;55.07;;;9.70;99.90;;;;;;5019567;28;20244;-63
2021/11/12 00:19:55;;;;;;;142.20;50.60;;;9.80;99.90;;;;;;5024000;28;20248;-63
2021/11/12 00:22:24;;;;;;;149.17;52.33;;;9.80;99.90;;;;;;5025796;28;20236;-63
2021/11/12 00:24:53;;;;;;;160.70;56.33;;;9.80;99.90;;;;;;5023764;28;20651;-63
2021/11/12 00:27:22;;;;;;;150.63;55.00;;;9.70;99.90;;;;;;5022198;28;20231;-63
2021/11/12 00:29:59;;;;;;;147.10;52.87;;;9.70;99.90;;;;;;5020508;28;20226;-63
2021/11/12 00:32:37;;;;;;;153.07;53.77;;;9.60;99.90;;;;;;5020008;28;20236;-63
2021/11/12 00:35:19;;;;;;;146.80;53.57;;;9.60;99.90;;;;;;5022252;28;20267;-63
2021/11/12 00:38:01;;;;;;;150.73;54.47;;;9.60;99.90;;;;;;5022837;28;20366;-63
2021/11/12 00:40:32;;;;;;;138.87;52.43;;;9.50;99.90;;;;;;5016026;28;20236;-63
2021/11/12 00:43:11;;;;;;;147.47;52.57;;;9.60;99.90;;;;;;5018834;28;20275;-63
2021/11/12 00:45:51;;;;;;;145.67;51.30;;;9.60;99.90;;;;;;5026161;28;20938;-63
2021/11/12 00:48:22;;;;;;;139.97;51.97;;;9.50;99.90;;;;;;5022198;28;20243;-63
2021/11/12 00:51:10;;;;;;;138.27;52.20;;;9.50;99.90;;;;;;5017247;28;20233;-63
2021/11/12 00:53:50;;;;;;;132.10;51.30;;;9.50;99.90;;;;;;5013620;28;20236;-63
2021/11/12 00:56:20;;;;;;;136.93;52.10;;;9.50;99.90;;;;;;5026695;28;20332;-63
2021/11/12 00:58:48;;;;;;;147.20;52.33;;;9.50;99.90;;;;;;5016387;28;20232;-63
2021/11/12 01:01:18;;;;;;;129.87;46.17;;;9.60;99.90;;;;;;5016356;28;20331;-63
2021/11/12 01:03:48;;;;;;;146.17;54.80;;;9.70;99.90;;;;;;5026136;28;20267;-63
2021/11/12 01:06:18;;;;;;;132.20;45.20;;;9.60;99.90;;;;;;5026699;28;20240;-63
2021/11/12 01:08:46;;;;;;;137.87;49.03;;;9.60;99.90;;;;;;5019108;28;20506;-63
2021/11/12 01:11:16;;;;;;;162.00;53.37;;;9.60;99.90;;;;;;5025752;28;20256;-63
2021/11/12 01:13:46;;;;;;;145.13;51.80;;;9.60;99.90;;;;;;5015637;28;20233;-63
2021/11/12 01:16:15;;;;;;;150.33;52.00;;;9.60;99.90;;;;;;5019995;28;20236;-63
2021/11/12 01:18:45;;;;;;;138.87;50.20;;;9.60;99.90;;;;;;5026456;28;20328;-63
2021/11/12 01:21:14;;;;;;;144.93;51.33;;;9.50;99.90;;;;;;5021886;28;20245;-63
2021/11/12 01:23:45;;;;;;;131.73;48.80;;;9.50;99.90;;;;;;5021095;28;20275;-63
2021/11/12 01:26:14;;;;;;;130.93;45.97;;;9.50;99.90;;;;;;5022114;28;20260;-63
2021/11/12 01:28:42;;;;;;;142.10;50.83;;;9.50;99.90;;;;;;5015935;28;20224;-63
2021/11/12 01:31:11;;;;;;;136.80;48.80;;;9.50;99.90;;;;;;5024748;28;20290;-63
2021/11/12 01:33:41;;;;;;;143.33;50.77;;;9.50;99.90;;;;;;5022258;28;20570;-63
2021/11/12 01:36:23;;;;;;;138.33;49.93;;;9.50;99.90;;;;;;5012925;28;20251;-63
2021/11/12 01:38:54;;;;;;;135.43;48.77;;;9.50;99.90;;;;;;5023238;28;20267;-63
2021/11/12 01:41:22;;;;;;;133.50;48.87;;;9.50;99.90;;;;;;5010792;28;20241;-63
2021/11/12 01:43:53;;;;;;;123.47;44.93;;;9.50;99.90;;;;;;5025435;28;20256;-63
2021/11/12 01:46:45;;;;;;;133.53;48.33;;;9.50;99.90;;;;;;5011477;28;20266;-63
2021/11/12 01:49:18;;;;;;;135.27;47.27;;;9.50;99.90;;;;;;5014514;28;20239;-63
2021/11/12 01:51:52;;;;;;;128.83;48.73;;;9.50;99.90;;;;;;5015799;28;20236;-63
2021/11/12 01:57:49;;;;;;;139.97;48.80;;;9.50;99.90;;;;;;5053439;28;20627;-65
2021/11/12 02:00:21;;;;;;;136.27;49.73;;;9.40;99.90;;;;;;5058258;28;20948;-65
2021/11/12 02:02:51;;;;;;;123.77;45.97;;;9.40;99.90;;;;;;5053624;28;20276;-65
2021/11/12 02:05:20;;;;;;;127.90;45.93;;;9.40;99.90;;;;;;5051413;28;20233;-65
2021/11/12 02:07:48;;;;;;;120.83;46.77;;;9.50;99.90;;;;;;5051946;28;20322;-65
2021/11/12 02:10:19;;;;;;;121.00;44.77;;;9.40;99.90;;;;;;5053619;28;20232;-65
2021/11/12 02:12:56;;;;;;;127.80;46.80;;;9.40;99.90;;;;;;5056407;28;20271;-65
2021/11/12 02:15:26;;;;;;;126.43;47.33;;;9.40;99.90;;;;;;5058442;28;20231;-65
2021/11/12 02:17:59;;;;;;;116.87;43.67;;;9.40;99.90;;;;;;5057638;28;20235;-65
2021/11/12 02:20:33;;;;;;;124.30;43.07;;;9.50;99.90;;;;;;5023037;28;20343;-63
2021/11/12 02:23:04;;;;;;;120.80;45.93;;;9.50;99.90;;;;;;5042750;28;20231;-63
2021/11/12 02:25:35;;;;;;;116.03;45.73;;;9.50;99.90;;;;;;5045136;28;20300;-63
2021/11/12 02:28:07;;;;;;;126.17;46.47;;;9.40;99.90;;;;;;5040390;28;20255;-63
2021/11/12 02:30:37;;;;;;;128.23;48.20;;;9.40;99.90;;;;;;5057371;28;20747;-63
2021/11/12 02:33:08;;;;;;;113.33;47.30;;;9.40;99.90;;;;;;5050838;28;20255;-63
2021/11/12 02:35:39;;;;;;;116.53;47.63;;;9.30;99.90;;;;;;5056276;28;20318;-63
2021/11/12 02:38:09;;;;;;;106.17;40.97;;;9.40;99.90;;;;;;5044894;28;20240;-63
2021/11/12 02:40:39;;;;;;;135.53;50.73;;;9.50;99.90;;;;;;5056919;28;20242;-63
2021/11/12 02:43:07;;;;;;;115.73;47.00;;;9.40;99.90;;;;;;5044227;28;20282;-63
2021/11/12 02:45:37;;;;;;;119.43;48.43;;;9.40;99.90;;;;;;5048985;28;20235;-63
2021/11/12 02:48:06;;;;;;;118.13;48.53;;;9.40;99.90;;;;;;5041831;28;20607;-63
2021/11/12 02:50:34;;;;;;;119.97;47.87;;;9.40;99.90;;;;;;5047925;28;20742;-63
2021/11/12 02:53:04;;;;;;;122.17;48.73;;;9.40;99.90;;;;;;5050005;28;20584;-63
2021/11/12 02:55:34;;;;;;;126.27;50.37;;;9.40;99.90;;;;;;5046208;28;20254;-63
2021/11/12 02:58:05;;;;;;;126.70;48.10;;;9.40;99.90;;;;;;5048511;28;20756;-63
2021/11/12 03:00:35;;;;;;;116.60;48.93;;;9.50;99.90;;;;;;5034822;28;20766;-63
2021/11/12 03:03:04;;;;;;;119.17;46.53;;;9.40;99.90;;;;;;5037489;28;20236;-63
2021/11/12 03:05:33;;;;;;;105.10;42.53;;;9.40;99.90;;;;;;5038973;28;20314;-63
2021/11/12 03:08:01;;;;;;;117.17;46.20;;;9.40;99.90;;;;;;5037327;28;20244;-63
2021/11/12 03:10:30;;;;;;;121.90;46.33;;;9.40;99.90;;;;;;5021025;28;20732;-63
2021/11/12 03:12:59;;;;;;;106.90;43.10;;;9.40;99.90;;;;;;5029754;28;20233;-63
2021/11/12 03:15:27;;;;;;;111.27;45.27;;;9.40;99.90;;;;;;5030332;28;20229;-63
2021/11/12 03:17:58;;;;;;;112.30;45.87;;;9.40;99.90;;;;;;5029178;28;20244;-63
2021/11/12 03:20:29;;;;;;;117.80;47.00;;;9.40;99.90;;;;;;5032387;28;20293;-63
2021/11/12 03:23:00;;;;;;;116.00;48.37;;;9.30;99.90;;;;;;5030089;28;20240;-63
2021/11/12 03:25:34;;;;;;;109.97;47.87;;;9.30;99.90;;;;;;5028362;28;20264;-63
2021/11/12 03:28:13;;;;;;;114.17;46.27;;;9.30;99.90;;;;;;5031703;28;20795;-63
2021/11/12 04:01:41;;;;;;;96.90;46.80;;;9.30;99.90;;;;;;5031036;28;20323;-63
2021/11/12 04:04:20;;;;;;;96.37;41.73;;;9.30;99.90;;;;;;5026832;28;20232;-63
2021/11/12 04:06:53;;;;;;;106.50;47.13;;;9.30;99.90;;;;;;5027106;28;20315;-63
2021/11/12 04:20:38;;;;;;;96.17;45.33;;;9.40;99.90;;;;;;5025864;28;20263;-63
2021/11/12 05:10:21;;;;;;;94.57;45.30;;;9.20;99.90;;;;;;5007644;28;20263;-63
2021/11/12 05:13:11;;;;;;;91.23;46.87;;;9.20;99.90;;;;;;5029270;28;20319;-63
2021/11/12 05:43:39;;;;;;;111.17;47.43;;;9.10;99.90;;;;;;5019895;28;20772;-63
2021/11/12 05:46:21;;;;;;;107.03;46.47;;;9.10;99.90;;;;;;5025053;28;20267;-63
2021/11/12 05:51:43;;;;;;;107.13;46.93;;;9.10;99.90;;;;;;5027032;28;20240;-63
2021/11/12 05:56:59;;;;;;;104.57;46.70;;;9.10;99.90;;;;;;5025685;28;20745;-63
2021/11/12 05:59:27;;;;;;;110.70;49.10;;;9.10;99.90;;;;;;5030228;28;20243;-63
2021/11/12 06:01:55;;;;;;;117.83;46.83;;;9.10;99.90;;;;;;5027358;28;20283;-63
2021/11/12 06:04:24;;;;;;;107.43;48.47;;;9.10;99.90;;;;;;5028149;28;20279;-63
2021/11/12 06:06:52;;;;;;;111.00;48.93;;;9.10;99.90;;;;;;5027345;28;20229;-63
2021/11/12 06:09:21;;;;;;;109.33;47.70;;;9.10;99.90;;;;;;5041861;28;20241;-63
2021/11/12 06:11:53;;;;;;;100.03;45.57;;;9.10;99.90;;;;;;5025329;28;20691;-63
2021/11/12 06:14:23;;;;;;;102.83;45.90;;;9.10;99.90;;;;;;5034878;28;20323;-63
2021/11/12 06:16:51;;;;;;;103.07;45.13;;;9.10;99.90;;;;;;5026963;28;20314;-63
2021/11/12 06:19:20;;;;;;;104.00;45.77;;;9.10;99.90;;;;;;5028627;28;20325;-63
2021/11/12 06:21:49;;;;;;;98.37;44.70;;;9.10;99.90;;;;;;5029026;28;20335;-63
2021/11/12 06:24:17;;;;;;;107.47;45.30;;;9.00;99.90;;;;;;5030302;28;20720;-63
2021/11/12 06:26:46;;;;;;;92.50;43.27;;;9.00;99.90;;;;;;5026434;28;20882;-63
2021/11/12 06:29:14;;;;;;;90.30;39.13;;;9.00;99.90;;;;;;5026405;28;20229;-63
2021/11/12 06:31:44;;;;;;;104.77;42.33;;;9.00;99.90;;;;;;5037271;28;20326;-63
2021/11/12 06:34:12;;;;;;;100.23;44.30;;;9.10;99.90;;;;;;5026759;28;20451;-63
2021/11/12 06:36:40;;;;;;;97.17;43.80;;;9.10;99.90;;;;;;5023505;28;20623;-63
2021/11/12 06:39:09;;;;;;;97.60;43.23;;;9.00;99.90;;;;;;5025139;28;20247;-63
2021/11/12 06:41:51;;;;;;;103.50;44.03;;;9.10;99.90;;;;;;5023505;28;20598;-63
2021/11/12 06:49:56;;;;;;;84.10;39.70;;;9.00;99.90;;;;;;5023687;28;20723;-63
2021/11/12 06:52:26;;;;;;;87.73;39.07;;;9.00;99.90;;;;;;5029490;28;20282;-62
2021/11/12 06:54:55;;;;;;;90.07;40.83;;;9.00;99.90;;;;;;5029316;28;20240;-63
2021/11/12 06:57:24;;;;;;;89.30;38.37;;;9.00;99.90;;;;;;5035367;28;20732;-63
2021/11/12 06:59:52;;;;;;;102.57;39.33;;;9.00;99.90;;;;;;5029151;28;20283;-63
2021/11/12 07:02:24;;;;;;;87.93;38.03;;;8.90;99.90;;;;;;5027613;28;20715;-63
2021/11/12 07:04:53;;;;;;;81.53;36.77;;;9.00;99.90;;;;;;5035813;28;20240;-63
2021/11/12 07:07:21;;;;;;;85.03;38.33;;;8.90;99.90;;;;;;5028573;28;20768;-63
2021/11/12 07:09:51;;;;;;;76.40;35.63;;;8.90;99.90;;;;;;5022311;28;20287;-63
2021/11/12 07:12:19;;;;;;;81.17;36.00;;;8.90;99.90;;;;;;5029524;28;20251;-63
2021/11/12 07:14:47;;;;;;;73.37;36.97;;;8.90;99.90;;;;;;5031917;28;20771;-63
2021/11/12 07:17:16;;;;;;;71.27;34.67;;;8.90;99.90;;;;;;5028325;28;20240;-62
2021/11/12 07:19:46;;;;;;;72.57;34.13;;;9.00;99.90;;;;;;5019323;28;20273;-63
2021/11/12 07:22:15;;;;;;;83.43;36.10;;;9.00;99.90;;;;;;5008652;28;20264;-62
2021/11/12 07:24:43;;;;;;;78.43;36.30;;;9.00;99.90;;;;;;5001482;28;20237;-63
2021/11/12 07:27:13;;;;;;;76.20;36.93;;;9.00;99.90;;;;;;5014771;28;20237;-63
2021/11/12 07:30:04;;;;;;;84.03;37.23;;;9.00;99.90;;;;;;5007210;28;20234;-63
2021/11/12 07:32:32;;;;;;;90.23;38.60;;;9.00;99.90;;;;;;5008432;28;20287;-63
2021/11/12 07:35:02;;;;;;;80.63;37.03;;;9.00;99.90;;;;;;5023084;28;20637;-63
2021/11/12 07:37:32;;;;;;;76.50;35.17;;;9.00;99.90;;;;;;5022402;28;20240;-63
2021/11/12 07:40:03;;;;;;;70.87;33.03;;;9.00;99.90;;;;;;5036092;28;20260;-63
2021/11/12 07:42:38;;;;;;;84.57;34.93;;;8.80;99.90;;;;;;5026163;28;20235;-63
2021/11/12 07:45:10;;;;;;;83.80;34.70;;;8.80;99.90;;;;;;5032130;28;20297;-63
2021/11/12 07:47:38;;;;;;;89.87;36.07;;;8.80;99.90;;;;;;5032481;28;20264;-63
2021/11/12 07:50:11;;;;;;;80.63;33.57;;;8.80;99.90;;;;;;5028406;28;20240;-63
2021/11/12 07:52:40;;;;;;;90.10;34.53;;;8.80;99.90;;;;;;5011200;28;20796;-63
2021/11/12 07:55:13;;;;;;;87.30;34.40;;;8.90;99.90;;;;;;5006622;28;20583;-63
2021/11/12 07:57:41;;;;;;;93.77;36.90;;;8.90;99.90;;;;;;5017454;28;20607;-63
2021/11/12 08:00:10;;;;;;;100.43;37.57;;;8.80;99.90;;;;;;5013692;28;20237;-63
2021/11/12 08:02:39;;;;;;;96.80;34.70;;;8.70;99.90;;;;;;5012316;28;20642;-63
2021/11/12 08:05:18;;;;;;;107.83;37.53;;;8.70;99.90;;;;;;5013222;28;20319;-63
2021/11/12 08:07:47;;;;;;;101.40;36.73;;;8.80;99.90;;;;;;5018682;28;20335;-63
2021/11/12 08:10:19;;;;;;;93.87;36.57;;;8.80;99.90;;;;;;5037523;28;20820;-63
2021/11/12 08:12:57;;;;;;;95.57;36.43;;;8.80;99.90;;;;;;5033041;28;20279;-63
2021/11/12 08:15:34;;;;;;;101.23;36.03;;;8.70;99.90;;;;;;5029957;28;20243;-63
2021/11/12 08:18:11;;;;;;;104.40;36.10;;;8.80;99.90;;;;;;5024667;28;20347;-63
2021/11/12 08:20:49;;;;;;;96.63;36.63;;;8.80;99.90;;;;;;5031835;28;20323;-63
2021/11/12 08:23:43;;;;;;;99.20;36.60;;;8.80;99.90;;;;;;5027323;28;20240;-63
2021/11/12 08:26:14;;;;;;;102.03;36.67;;;8.80;99.90;;;;;;5014930;28;20283;-63
2021/11/12 08:31:49;;;;;;;98.87;36.43;;;8.80;99.90;;;;;;4989319;28;20775;-63
2021/11/12 08:34:19;;;;;;;98.23;37.10;;;8.80;99.90;;;;;;5025097;28;20252;-63
2021/11/12 08:36:55;;;;;;;100.83;34.87;;;8.80;99.90;;;;;;5030025;28;20235;-63
2021/11/12 08:39:42;;;;;;;96.90;35.60;;;8.70;99.90;;;;;;5026991;28;20235;-63
2021/11/12 08:42:12;;;;;;;98.70;36.00;;;8.70;99.90;;;;;;5026620;28;20576;-63
2021/11/12 08:44:44;;;;;;;102.80;35.90;;;8.80;99.90;;;;;;5025810;28;20299;-63
2021/11/12 08:47:15;;;;;;;103.50;35.33;;;8.80;99.90;;;;;;5030186;28;20714;-63
2021/11/12 08:49:45;;;;;;;91.30;33.93;;;8.80;99.90;;;;;;5030163;28;20283;-63
2021/11/12 08:52:17;;;;;;;92.67;34.03;;;8.80;99.90;;;;;;5025055;28;20347;-63
2021/11/12 08:54:48;;;;;;;83.87;32.70;;;8.80;99.90;;;;;;5024380;28;20688;-63
2021/11/12 08:57:19;;;;;;;81.40;31.10;;;8.80;99.90;;;;;;5028171;28;20236;-63
2021/11/12 08:59:52;;;;;;;79.47;30.07;;;8.80;99.90;;;;;;5025684;28;20236;-63
2021/11/12 09:02:25;;;;;;;66.20;28.73;;;8.80;99.90;;;;;;5025860;28;20719;-63
2021/11/12 09:04:54;;;;;;;68.87;27.33;;;8.80;99.90;;;;;;5025167;28;20244;-63
2021/11/12 09:07:24;;;;;;;66.60;28.57;;;8.80;99.90;;;;;;5025064;28;20492;-63
2021/11/12 09:09:56;;;;;;;52.50;23.83;;;8.70;99.90;;;;;;5023478;28;20618;-63
2021/11/12 09:12:25;;;;;;;54.63;24.27;;;8.70;99.90;;;;;;5026192;28;20328;-63
2021/11/12 09:14:55;;;;;;;57.50;25.93;;;8.80;99.90;;;;;;5027105;28;20309;-63
2021/11/12 09:17:27;;;;;;;50.80;24.57;;;8.80;99.90;;;;;;5030985;28;20296;-63
2021/11/12 09:20:07;;;;;;;48.97;23.17;;;8.80;99.90;;;;;;5024025;28;20742;-63
2021/11/12 09:22:36;;;;;;;53.27;24.13;;;8.80;99.90;;;;;;5028713;28;20239;-63
2021/11/12 09:25:05;;;;;;;47.13;22.30;;;8.90;99.90;;;;;;5027437;28;20762;-63
2021/11/12 09:27:34;;;;;;;44.13;21.20;;;8.90;99.90;;;;;;5034890;28;20239;-63
2021/11/12 09:30:08;;;;;;;44.80;20.80;;;8.90;99.90;;;;;;5029576;28;20331;-63
2021/11/12 09:32:37;;;;;;;42.47;20.23;;;9.00;99.90;;;;;;5036545;28;20812;-63
2021/11/12 09:35:06;;;;;;;43.33;19.43;;;9.00;99.90;;;;;;5026062;28;20695;-63
2021/11/12 09:37:38;;;;;;;36.27;17.87;;;9.10;99.90;;;;;;5032817;28;20339;-63
2021/11/12 09:40:08;;;;;;;34.97;18.20;;;9.10;99.90;;;;;;5025444;28;20240;-63
2021/11/12 09:42:38;;;;;;;32.93;18.10;;;9.10;99.90;;;;;;5023120;28;20312;-63
2021/11/12 09:45:09;;;;;;;33.73;17.87;;;9.10;99.90;;;;;;5031876;28;20302;-63
2021/11/12 09:47:37;;;;;;;31.63;17.63;;;9.10;99.90;;;;;;5030936;28;20614;-65
2021/11/12 09:50:09;;;;;;;27.03;15.93;;;9.10;99.90;;;;;;5028332;28;20573;-65
2021/11/12 09:52:40;;;;;;;31.17;16.23;;;9.10;99.90;;;;;;5033739;28;20286;-63
2021/11/12 09:55:10;;;;;;;28.90;15.03;;;9.10;99.90;;;;;;5023549;28;20326;-63
2021/11/12 09:57:38;;;;;;;30.03;16.33;;;9.20;99.90;;;;;;5025949;28;20256;-63
2021/11/12 10:00:11;;;;;;;30.97;16.13;;;9.20;99.90;;;;;;5031192;28;20276;-63
2021/11/12 10:02:42;;;;;;;28.87;15.67;;;9.20;99.90;;;;;;5020422;28;20244;-63
2021/11/12 10:05:12;;;;;;;27.50;15.43;;;9.10;99.90;;;;;;5025661;28;20248;-63
2021/11/12 10:07:41;;;;;;;27.00;15.27;;;9.10;99.90;;;;;;5036196;28;20240;-63
2021/11/12 10:10:13;;;;;;;22.90;14.13;;;9.10;99.90;;;;;;5026007;28;20328;-63
2021/11/12 10:12:44;;;;;;;25.37;15.33;;;9.10;99.90;;;;;;5022907;28;20712;-63
2021/11/12 10:15:16;;;;;;;22.33;14.50;;;9.10;99.90;;;;;;5022036;28;20248;-63
2021/11/12 10:17:46;;;;;;;27.13;16.23;;;9.10;99.90;;;;;;5024764;28;20282;-63
2021/11/12 10:20:17;;;;;;;29.37;17.60;;;9.10;99.90;;;;;;5036911;28;20245;-63
2021/11/12 10:22:49;;;;;;;27.50;16.63;;;9.20;99.90;;;;;;5037308;28;20770;-63
2021/11/12 10:25:18;;;;;;;26.07;15.37;;;9.20;99.90;;;;;;5028367;28;20240;-63
2021/11/12 10:27:50;;;;;;;27.10;17.10;;;9.20;99.90;;;;;;5027885;28;20340;-63
2021/11/12 10:30:21;;;;;;;27.50;16.97;;;9.20;99.90;;;;;;5027879;28;20251;-63
2021/11/12 10:32:55;;;;;;;26.47;16.87;;;9.20;99.90;;;;;;5023384;28;21083;-63
2021/11/12 10:35:26;;;;;;;26.87;16.90;;;9.20;99.90;;;;;;5029583;28;20331;-63
2021/11/12 10:38:07;;;;;;;25.00;15.70;;;9.30;99.90;;;;;;5033213;28;20261;-63
2021/11/12 10:40:36;;;;;;;27.50;17.17;;;9.20;99.90;;;;;;5018259;28;20329;-63
2021/11/12 10:43:04;;;;;;;27.50;17.23;;;9.20;99.90;;;;;;5023768;28;20236;-63
2021/11/12 10:45:34;;;;;;;24.07;16.93;;;9.20;99.90;;;;;;5033660;28;20240;-63
2021/11/12 10:48:06;;;;;;;22.73;16.03;;;9.20;99.90;;;;;;5031901;28;20264;-63
2021/11/12 10:50:36;;;;;;;22.83;16.50;;;9.30;99.90;;;;;;5020953;28;20667;-63
2021/11/12 10:53:11;;;;;;;25.30;16.60;;;9.30;99.90;;;;;;5026248;28;20704;-63
2021/11/12 10:55:39;;;;;;;24.57;17.23;;;9.30;99.90;;;;;;5027735;28;21039;-63
2021/11/12 10:58:10;;;;;;;24.63;16.90;;;9.30;99.90;;;;;;5025838;28;20264;-63
2021/11/12 11:00:44;;;;;;;22.10;16.50;;;9.30;99.90;;;;;;5024223;28;20327;-63
2021/11/12 11:03:15;;;;;;;22.23;16.03;;;9.30;99.90;;;;;;5029772;28;20274;-63
2021/11/12 11:05:45;;;;;;;21.73;15.93;;;9.30;99.90;;;;;;5029340;28;20248;-63
2021/11/12 11:08:20;;;;;;;21.80;16.73;;;9.30;99.90;;;;;;5029026;28;20996;-63
2021/11/12 11:10:52;;;;;;;22.40;16.67;;;9.30;99.90;;;;;;5030332;28;20243;-63
2021/11/12 11:13:22;;;;;;;22.27;17.20;;;9.40;99.90;;;;;;5028020;28;20245;-63
2021/11/12 11:15:52;;;;;;;19.83;15.00;;;9.40;99.90;;;;;;5029059;28;20508;-63
2021/11/12 11:18:24;;;;;;;20.97;16.37;;;9.40;99.90;;;;;;5025446;28;20616;-63
2021/11/12 11:20:58;;;;;;;21.47;16.83;;;9.40;99.90;;;;;;5005839;28;20282;-63
2021/11/12 11:23:29;;;;;;;19.40;15.93;;;9.40;99.90;;;;;;5014653;28;20258;-63
2021/11/12 11:26:02;;;;;;;22.17;15.67;;;9.40;99.90;;;;;;5021450;28;20293;-63
2021/11/12 11:28:32;;;;;;;19.40;15.83;;;9.40;99.90;;;;;;5022021;28;20241;-62
2021/11/12 11:31:02;;;;;;;21.13;17.00;;;9.40;99.90;;;;;;5031051;28;20276;-63
2021/11/12 11:33:31;;;;;;;24.80;18.57;;;9.40;99.90;;;;;;5025817;28;20521;-62
2021/11/12 11:36:01;;;;;;;24.17;16.77;;;9.40;99.90;;;;;;5025764;28;20339;-62
2021/11/12 11:38:33;;;;;;;21.37;16.70;;;9.40;99.90;;;;;;5026032;28;20607;-63
2021/11/12 11:41:02;;;;;;;20.37;15.97;;;9.50;99.90;;;;;;5024841;28;20732;-63
2021/11/12 11:43:31;;;;;;;19.40;15.40;;;9.50;99.90;;;;;;5017652;28;20237;-63
2021/11/12 11:46:01;;;;;;;19.27;15.53;;;9.50;99.90;;;;;;5029977;28;20297;-63
2021/11/12 11:48:34;;;;;;;18.57;15.57;;;9.50;99.90;;;;;;5024811;28;20241;-62
2021/11/12 11:51:19;;;;;;;17.27;14.30;;;9.40;99.90;;;;;;5024587;28;20562;-63
2021/11/12 11:53:50;;;;;;;18.73;15.23;;;9.40;99.90;;;;;;5027264;28;20283;-62
2021/11/12 11:56:23;;;;;;;17.77;14.70;;;9.50;99.90;;;;;;5024251;28;20245;-63
2021/11/12 11:58:52;;;;;;;20.57;15.00;;;9.50;99.90;;;;;;5027125;28;20319;-62
2021/11/12 12:01:39;;;;;;;16.33;12.87;;;9.50;99.90;;;;;;5027075;28;20237;-63
2021/11/12 12:04:24;;;;;;;17.20;13.17;;;9.50;99.90;;;;;;5024124;28;20241;-63
2021/11/12 12:07:19;;;;;;;16.23;12.00;;;9.50;99.90;;;;;;5026395;28;20232;-62
2021/11/12 12:09:52;;;;;;;13.47;11.93;;;9.50;99.90;;;;;;5025422;28;20634;-62
2021/11/12 12:12:41;;;;;;;16.83;12.90;;;9.60;99.90;;;;;;5024141;28;20323;-62
2021/11/12 12:15:37;;;;;;;15.63;12.37;;;9.60;99.90;;;;;;5026967;28;20331;-63
2021/11/12 12:18:21;;;;;;;17.23;12.80;;;9.60;99.90;;;;;;5023853;28;20755;-63
2021/11/12 12:21:37;;;;;;;14.03;11.53;;;9.50;99.90;;;;;;5024040;28;20481;-62
2021/11/12 12:36:42;;;;;;;18.33;13.73;;;9.80;99.90;;;;;;4984087;28;20612;-62
2021/11/12 13:23:00;;;;;;;15.40;11.23;;;10.20;99.90;;;;;;5027737;28;20323;-63
2021/11/12 13:25:34;;;;;;;15.40;11.13;;;10.20;99.90;;;;;;5017859;28;20728;-63
2021/11/12 13:28:23;;;;;;;15.33;10.80;;;10.10;99.90;;;;;;5024112;28;20388;-63
2021/11/12 13:30:57;;;;;;;14.23;10.60;;;10.00;99.90;;;;;;5021029;28;20242;-63
2021/11/12 13:33:29;;;;;;;12.97;10.13;;;10.00;99.90;;;;;;5027715;28;20614;-63
2021/11/12 13:35:59;;;;;;;11.83;9.43;;;9.90;99.90;;;;;;5021968;28;20247;-63
2021/11/12 13:38:36;;;;;;;12.87;10.47;;;9.90;99.90;;;;;;5024924;28;20335;-63
2021/11/12 13:41:07;;;;;;;11.77;9.53;;;9.80;99.90;;;;;;5024600;28;20320;-63
2021/11/12 13:43:39;;;;;;;13.13;10.43;;;9.90;99.90;;;;;;5021224;28;20240;-63
2021/11/12 13:46:08;;;;;;;12.73;10.07;;;9.90;99.90;;;;;;5025243;28;20703;-63
2021/11/12 13:48:44;;;;;;;14.67;10.87;;;9.90;99.90;;;;;;5022755;28;20244;-63
2021/11/12 13:51:14;;;;;;;12.50;9.77;;;9.90;99.90;;;;;;5024723;28;20248;-63
2021/11/12 13:53:46;;;;;;;11.73;9.20;;;9.90;99.90;;;;;;5022708;28;20240;-63
2021/11/12 13:56:14;;;;;;;11.47;9.17;;;10.00;99.90;;;;;;5023865;28;20302;-63
2021/11/12 13:58:43;;;;;;;11.57;8.93;;;9.90;99.90;;;;;;5022811;28;20286;-63
2021/11/12 14:01:20;;;;;;;10.57;8.77;;;9.90;99.90;;;;;;5020965;28;21035;-63
2021/11/12 14:03:50;;;;;;;11.17;9.07;;;9.90;99.90;;;;;;5020814;28;20697;-63
2021/11/12 14:06:20;;;;;;;10.87;8.93;;;9.90;99.90;;;;;;5022916;28;20242;-63
2021/11/12 14:08:52;;;;;;;12.07;8.63;;;9.90;99.90;;;;;;5021222;28;20240;-63
2021/11/12 14:11:25;;;;;;;10.87;8.43;;;9.90;99.90;;;;;;5027333;28;20722;-63
2021/11/12 14:13:56;;;;;;;10.50;8.33;;;9.90;99.90;;;;;;5023150;28;20252;-63
2021/11/12 14:16:32;;;;;;;10.47;9.13;;;9.90;99.90;;;;;;5033180;28;20259;-63
2021/11/12 14:21:54;;;;;;;10.23;8.53;;;10.00;99.90;;;;;;4994740;28;20339;-63
2021/11/12 14:27:31;;;;;;;9.20;7.67;;;9.80;99.90;;;;;;5021112;28;20244;-63
2021/11/12 14:30:27;;;;;;;9.17;7.67;;;9.80;99.90;;;;;;5027414;28;20323;-63
2021/11/12 14:33:13;;;;;;;9.20;7.10;;;9.80;99.90;;;;;;5025773;28;20235;-63
2021/11/12 14:35:49;;;;;;;7.53;6.40;;;9.80;99.90;;;;;;5022254;28;20311;-63
2021/11/12 14:38:25;;;;;;;13.13;6.23;;;10.00;99.90;;;;;;5019853;28;20237;-62
2021/11/12 14:41:25;;;;;;;13.27;6.70;;;9.90;99.90;;;;;;5024431;28;20290;-62
2021/11/12 14:46:57;;;;;;;7.50;6.40;;;9.70;99.90;;;;;;5030009;28;20241;-62
2021/11/12 14:49:31;;;;;;;6.33;5.37;;;9.60;99.90;;;;;;5025224;28;20236;-62
2021/11/12 14:52:03;;;;;;;6.43;5.17;;;9.60;99.90;;;;;;5027446;28;20276;-62
2021/11/12 14:54:36;;;;;;;7.03;4.67;;;9.40;99.90;;;;;;5024698;28;20271;-62
2021/11/12 14:57:11;;;;;;;5.93;4.20;;;9.40;99.90;;;;;;5028091;28;20236;-62
2021/11/12 14:59:41;;;;;;;4.80;4.33;;;9.40;99.90;;;;;;5027400;28;20322;-62
2021/11/12 15:02:10;;;;;;;5.23;4.40;;;9.40;99.90;;;;;;5022075;28;20613;-63
2021/11/12 15:04:43;;;;;;;5.70;4.53;;;9.30;99.90;;;;;;5020619;28;20295;-62
2021/11/12 15:07:13;;;;;;;6.27;4.17;;;9.30;99.90;;;;;;5014070;28;20927;-62
2021/11/12 15:09:42;;;;;;;4.50;4.10;;;9.30;99.90;;;;;;5015734;28;20233;-62
2021/11/12 15:12:13;;;;;;;5.50;4.30;;;9.30;99.90;;;;;;5021323;28;20241;-62
2021/11/12 15:14:45;;;;;;;6.57;4.53;;;9.20;99.90;;;;;;5031896;28;20248;-62
2021/11/12 15:17:14;;;;;;;6.70;4.73;;;9.20;99.90;;;;;;5028553;28;20232;-62
2021/11/12 15:19:45;;;;;;;4.80;4.40;;;9.20;99.90;;;;;;5036871;28;20243;-63
2021/11/12 15:22:24;;;;;;;4.63;4.10;;;9.10;99.90;;;;;;5031889;28;20298;-62
2021/11/12 15:25:05;;;;;;;4.93;4.53;;;9.10;99.90;;;;;;5017975;28;20236;-62
2021/11/12 15:27:46;;;;;;;6.00;5.27;;;9.00;99.90;;;;;;5030598;28;20323;-62
2021/11/12 15:30:19;;;;;;;5.00;4.53;;;9.00;99.90;;;;;;5029934;28;20298;-62
2021/11/12 15:32:50;;;;;;;4.90;4.47;;;8.90;99.90;;;;;;5006996;28;20234;-62
2021/11/12 15:35:21;;;;;;;5.20;4.70;;;8.90;99.90;;;;;;5005889;28;20737;-62
2021/11/12 15:37:53;;;;;;;5.47;4.97;;;8.90;99.90;;;;;;5006411;28;20330;-62
2021/11/12 15:40:23;;;;;;;7.83;5.57;;;8.90;99.90;;;;;;5014756;28;20332;-63
2021/11/12 15:43:11;;;;;;;6.77;6.03;;;8.80;99.90;;;;;;5013181;28;20290;-63
2021/11/12 15:45:52;;;;;;;8.55;7.60;;;8.90;99.90;;;;;;5022874;28;20874;-64
2021/11/12 15:48:21;;;;;;;9.10;7.00;;;8.90;99.90;;;;;;5028365;28;20236;-63
2021/11/12 15:50:57;;;;;;;7.80;6.80;;;8.90;99.90;;;;;;5040549;28;20236;-63
2021/11/12 15:53:29;;;;;;;8.43;7.00;;;8.90;99.90;;;;;;5028622;28;20382;-63
2021/11/12 15:58:56;;;;;;;7.20;6.40;;;8.90;99.90;;;;;;5021480;28;20724;-63
2021/11/12 16:01:58;;;;;;;9.00;6.90;;;8.90;99.90;;;;;;5026546;28;20468;-63
2021/11/12 16:04:49;;;;;;;7.00;6.30;;;8.80;99.90;;;;;;5034504;28;20263;-63
2021/11/12 16:07:30;;;;;;;8.47;6.27;;;8.80;99.90;;;;;;5028069;28;20237;-63
2021/11/12 16:12:48;;;;;;;7.37;6.67;;;8.70;99.90;;;;;;5001700;28;20605;-63
2021/11/12 16:15:29;;;;;;;8.27;6.47;;;8.70;99.90;;;;;;5029723;28;20261;-63
2021/11/12 16:18:04;;;;;;;8.90;7.00;;;8.70;99.90;;;;;;5030864;28;21803;-63
2021/11/12 16:26:01;;;;;;;8.10;7.30;;;8.60;99.90;;;;;;5024493;28;20319;-63
2021/11/12 16:28:33;;;;;;;9.83;8.07;;;8.60;99.90;;;;;;5021793;28;20247;-63
2021/11/12 16:31:04;;;;;;;9.27;8.37;;;8.60;99.90;;;;;;5024922;28;20662;-63
2021/11/12 16:33:33;;;;;;;10.20;9.20;;;8.50;99.90;;;;;;5006030;28;20237;-63
2021/11/12 16:36:04;;;;;;;11.30;9.87;;;8.60;99.90;;;;;;5016702;28;20260;-63
2021/11/12 16:38:33;;;;;;;11.33;10.30;;;8.60;99.90;;;;;;5002741;28;20239;-63
2021/11/12 16:41:07;;;;;;;15.63;14.13;;;8.60;99.90;;;;;;5006702;28;20268;-63
2021/11/12 16:43:57;;;;;;;15.23;13.73;;;8.60;99.90;;;;;;5023567;28;20718;-63
2021/11/12 16:46:43;;;;;;;13.70;12.30;;;8.50;99.90;;;;;;5036225;28;20694;-63